Time;durP1;ratioP1;P1;durP2;ratioP2;P2;SDS_P1;SDS_P2;PMS_P1;PMS_P2;Temp;Humidity;BMP_temperature;BMP_pressure;BME280_temperature;BME280_humidity;BME280_pressure;Samples;Min_cycle;Max_cycle;Signal;HPM_P1;HPM_P2
2022/08/23 00:02:00;;;;;;;6.90;4.50;;;16.10;99.90;;;;;;5062584;28;20013;-78
2022/08/23 00:04:33;;;;;;;7.22;4.60;;;15.90;99.90;;;;;;5061975;28;20028;-78
2022/08/23 00:07:00;;;;;;;6.45;4.07;;;16.00;99.90;;;;;;5040930;28;20029;-78
2022/08/23 00:09:27;;;;;;;5.95;4.90;;;16.10;99.90;;;;;;5059132;28;20809;-79
2022/08/23 00:12:09;;;;;;;8.20;5.28;;;16.00;99.90;;;;;;5059080;28;20387;-78
2022/08/23 00:14:37;;;;;;;7.40;4.20;;;15.40;99.90;;;;;;5041444;28;20025;-78
2022/08/23 00:17:05;;;;;;;5.40;4.40;;;15.70;99.90;;;;;;5049889;28;20383;-80
2022/08/23 00:19:31;;;;;;;6.35;4.82;;;16.00;99.90;;;;;;5059236;28;20013;-80
2022/08/23 00:21:57;;;;;;;5.20;4.60;;;15.70;99.90;;;;;;5041591;28;20386;-80
2022/08/23 00:24:24;;;;;;;6.03;4.35;;;16.00;99.90;;;;;;5063670;28;20013;-78
2022/08/23 00:27:06;;;;;;;5.57;4.47;;;16.00;99.90;;;;;;5055559;28;20024;-77
2022/08/23 00:29:39;;;;;;;6.32;4.30;;;16.10;99.90;;;;;;5055559;28;20537;-78
2022/08/23 00:32:06;;;;;;;6.00;4.35;;;16.20;99.90;;;;;;5055867;28;20066;-76
2022/08/23 00:34:33;;;;;;;5.60;4.43;;;16.00;99.90;;;;;;5039689;28;20383;-75
2022/08/23 00:36:59;;;;;;;8.82;4.20;;;15.70;99.90;;;;;;5044383;28;20025;-77
2022/08/23 00:39:25;;;;;;;6.18;3.92;;;15.80;99.90;;;;;;5055364;28;20483;-76
2022/08/23 00:41:50;;;;;;;6.05;4.57;;;15.70;99.90;;;;;;5055223;28;20032;-76
2022/08/23 00:47:38;;;;;;;5.70;4.32;;;15.70;99.90;;;;;;5057406;28;20513;-77
2022/08/23 00:50:28;;;;;;;5.40;4.82;;;15.60;99.90;;;;;;5049897;28;20019;-76
2022/08/23 00:53:13;;;;;;;8.30;4.93;;;15.60;99.90;;;;;;5033199;28;20009;-78
2022/08/23 00:55:41;;;;;;;7.75;5.00;;;15.50;99.90;;;;;;5040079;28;20112;-77
2022/08/23 00:58:08;;;;;;;5.55;4.50;;;15.60;99.90;;;;;;5057257;28;20025;-78
2022/08/23 01:00:33;;;;;;;7.25;4.72;;;15.10;99.90;;;;;;5057232;28;20028;-77
2022/08/23 01:03:01;;;;;;;5.40;4.50;;;15.30;99.90;;;;;;5057362;28;20395;-78
2022/08/23 01:05:35;;;;;;;5.53;4.63;;;14.90;99.90;;;;;;5057134;28;20025;-77
2022/08/23 01:08:00;;;;;;;7.43;5.07;;;14.80;99.90;;;;;;5057522;28;20021;-78
2022/08/23 01:10:34;;;;;;;6.63;4.70;;;14.90;99.90;;;;;;5047015;28;20023;-78
2022/08/23 01:13:07;;;;;;;7.13;5.38;;;15.00;99.90;;;;;;5057352;28;20075;-78
2022/08/23 01:15:59;;;;;;;8.25;5.32;;;14.50;99.90;;;;;;5058385;28;20044;-78
2022/08/23 01:18:27;;;;;;;11.27;6.28;;;13.80;99.90;;;;;;5044493;28;20056;-76
2022/08/23 01:21:05;;;;;;;7.15;5.60;;;13.60;99.90;;;;;;5038658;28;20056;-77
2022/08/23 01:23:50;;;;;;;7.60;5.20;;;14.10;99.90;;;;;;5040370;28;20044;-79
2022/08/23 01:26:18;;;;;;;5.50;4.43;;;14.20;99.90;;;;;;5062097;28;20013;-79
2022/08/23 01:28:44;;;;;;;5.72;4.68;;;14.30;99.90;;;;;;5061795;28;20017;-79
2022/08/23 01:31:11;;;;;;;5.65;5.15;;;14.50;99.90;;;;;;5061671;28;20024;-77
2022/08/23 01:33:38;;;;;;;6.93;5.28;;;14.60;99.90;;;;;;5042121;28;20047;-79
2022/08/23 01:36:08;;;;;;;7.57;5.57;;;14.40;99.90;;;;;;5047299;28;20383;-77
2022/08/23 01:38:34;;;;;;;8.70;5.82;;;14.20;99.90;;;;;;5040640;28;20439;-76
2022/08/23 01:40:59;;;;;;;8.13;5.45;;;14.40;99.90;;;;;;5036574;28;20017;-79
2022/08/23 01:43:25;;;;;;;9.02;5.63;;;14.40;99.90;;;;;;5060661;28;20028;-78
2022/08/23 01:45:52;;;;;;;5.95;5.10;;;14.20;99.90;;;;;;5060725;28;20043;-78
2022/08/23 01:48:19;;;;;;;8.68;5.07;;;14.30;99.90;;;;;;5048098;28;20017;-76
2022/08/23 01:50:46;;;;;;;7.20;5.35;;;14.40;99.90;;;;;;5044718;28;20021;-79
2022/08/23 01:53:13;;;;;;;6.50;5.38;;;14.10;99.90;;;;;;5060727;28;20013;-78
2022/08/23 01:55:40;;;;;;;9.68;5.30;;;14.20;99.90;;;;;;5058283;28;20025;-76
2022/08/23 01:58:06;;;;;;;6.00;5.07;;;14.20;99.90;;;;;;5036845;28;20067;-77
2022/08/23 02:00:36;;;;;;;7.55;5.53;;;14.60;99.90;;;;;;5055583;28;20395;-78
2022/08/23 02:03:02;;;;;;;7.13;5.28;;;14.40;99.90;;;;;;5039702;28;20079;-78
2022/08/23 02:05:29;;;;;;;8.98;5.63;;;14.50;99.90;;;;;;5055683;28;20079;-79
2022/08/23 02:07:55;;;;;;;8.40;5.07;;;14.50;99.90;;;;;;5058014;28;20479;-78
2022/08/23 02:10:21;;;;;;;6.78;5.10;;;14.50;99.90;;;;;;5044507;28;20051;-78
2022/08/23 02:12:47;;;;;;;6.10;5.43;;;14.50;99.90;;;;;;5052527;28;20021;-78
2022/08/23 02:15:14;;;;;;;6.15;5.40;;;14.40;99.90;;;;;;5057541;28;20433;-78
2022/08/23 02:17:40;;;;;;;7.53;6.00;;;14.20;99.90;;;;;;5059644;28;20589;-78
2022/08/23 02:20:07;;;;;;;10.35;5.80;;;14.10;99.90;;;;;;5061160;28;20479;-78
2022/08/23 02:22:33;;;;;;;7.28;5.43;;;14.10;99.90;;;;;;5042508;28;20088;-79
2022/08/23 02:24:59;;;;;;;7.30;5.43;;;14.20;99.90;;;;;;5058947;28;20057;-78
2022/08/23 02:27:25;;;;;;;7.03;5.85;;;14.00;99.90;;;;;;5045100;28;20054;-79
2022/08/23 02:29:51;;;;;;;6.55;5.90;;;13.80;99.90;;;;;;5054518;28;20047;-77
2022/08/23 02:32:18;;;;;;;6.95;5.78;;;13.90;99.90;;;;;;5060953;28;20027;-76
2022/08/23 02:34:45;;;;;;;6.78;5.15;;;13.90;99.90;;;;;;5035458;28;20029;-76
2022/08/23 02:37:12;;;;;;;8.15;6.13;;;13.80;99.90;;;;;;5035740;28;20055;-79
2022/08/23 02:39:40;;;;;;;6.15;5.55;;;13.90;99.90;;;;;;5043072;28;20017;-78
2022/08/23 02:42:06;;;;;;;9.88;6.15;;;14.10;99.90;;;;;;5055909;28;20055;-77
2022/08/23 02:44:33;;;;;;;8.15;5.70;;;14.20;99.90;;;;;;5053543;28;20036;-77
2022/08/23 02:47:00;;;;;;;7.38;5.85;;;14.10;99.90;;;;;;5054367;28;20013;-78
2022/08/23 02:49:27;;;;;;;7.25;6.32;;;14.10;99.90;;;;;;5055491;28;20013;-78
2022/08/23 02:51:53;;;;;;;13.68;6.57;;;14.20;99.90;;;;;;5037180;28;20442;-76
2022/08/23 02:54:18;;;;;;;6.90;6.20;;;14.10;99.90;;;;;;5055876;28;20045;-76
2022/08/23 02:56:44;;;;;;;7.68;6.07;;;14.20;99.90;;;;;;5054525;28;20418;-76
2022/08/23 02:59:10;;;;;;;7.57;6.75;;;14.10;99.90;;;;;;5045755;28;20029;-76
2022/08/23 03:01:37;;;;;;;7.47;6.18;;;14.00;99.90;;;;;;5055393;28;20032;-77
2022/08/23 03:04:07;;;;;;;6.63;5.90;;;14.00;99.90;;;;;;5060362;28;20017;-78
2022/08/23 03:06:33;;;;;;;8.50;6.43;;;14.20;99.90;;;;;;5038850;28;20020;-77
2022/08/23 03:08:58;;;;;;;7.20;5.72;;;14.10;99.90;;;;;;5054874;28;20471;-76
2022/08/23 03:11:25;;;;;;;9.32;6.13;;;13.90;99.90;;;;;;5036547;28;20490;-78
2022/08/23 03:13:51;;;;;;;8.68;6.32;;;13.80;99.90;;;;;;5054331;28;20516;-77
2022/08/23 03:16:17;;;;;;;7.45;5.90;;;13.80;99.90;;;;;;5053874;28;20475;-77
2022/08/23 03:18:43;;;;;;;9.13;6.25;;;13.90;99.90;;;;;;5051057;28;20027;-76
2022/08/23 03:21:09;;;;;;;8.77;5.80;;;13.90;99.90;;;;;;5056925;28;20111;-77
2022/08/23 03:23:36;;;;;;;7.32;6.38;;;13.90;99.90;;;;;;5062466;28;20025;-78
2022/08/23 03:26:04;;;;;;;7.88;6.68;;;13.60;99.90;;;;;;5054971;28;20036;-78
2022/08/23 03:28:31;;;;;;;7.63;6.22;;;13.70;99.90;;;;;;5059479;28;20028;-78
2022/08/23 03:30:57;;;;;;;6.88;6.18;;;13.70;99.90;;;;;;5057539;28;20021;-77
2022/08/23 03:33:22;;;;;;;9.25;6.60;;;13.80;99.90;;;;;;5067269;28;20050;-79
2022/08/23 03:35:49;;;;;;;8.40;6.22;;;13.90;99.90;;;;;;5051775;28;20021;-80
2022/08/23 03:38:15;;;;;;;7.53;6.47;;;13.70;99.90;;;;;;5066012;28;20052;-79
2022/08/23 03:40:42;;;;;;;8.93;6.63;;;13.50;99.90;;;;;;5038133;28;20060;-76
2022/08/23 03:43:08;;;;;;;10.77;6.85;;;13.60;99.90;;;;;;5052145;28;20040;-77
2022/08/23 03:45:33;;;;;;;8.02;6.55;;;13.20;99.90;;;;;;5043883;28;20021;-77
2022/08/23 03:47:59;;;;;;;9.73;7.05;;;13.20;99.90;;;;;;5066422;28;20471;-78
2022/08/23 03:50:25;;;;;;;8.20;6.57;;;13.10;99.90;;;;;;5055145;28;20373;-73
2022/08/23 03:52:50;;;;;;;8.55;7.20;;;13.20;99.90;;;;;;5036599;28;20041;-73
2022/08/23 03:55:16;;;;;;;9.32;7.30;;;13.00;99.90;;;;;;5055769;28;20033;-79
2022/08/23 03:57:42;;;;;;;9.52;7.05;;;12.90;99.90;;;;;;5045162;28;20078;-78
2022/08/23 04:00:11;;;;;;;7.47;6.65;;;13.20;99.90;;;;;;5043949;23;20035;-74
2022/08/23 04:02:37;;;;;;;8.68;6.57;;;13.10;99.90;;;;;;5021425;28;20076;-75
2022/08/23 04:05:04;;;;;;;7.35;6.50;;;13.40;99.90;;;;;;5016858;28;20507;-76
2022/08/23 04:07:30;;;;;;;8.05;7.05;;;13.50;99.90;;;;;;5000695;28;20045;-76
2022/08/23 04:09:56;;;;;;;7.40;6.70;;;13.20;99.90;;;;;;4999321;28;20484;-75
2022/08/23 04:12:22;;;;;;;9.75;6.53;;;13.10;99.90;;;;;;4986663;28;20030;-74
2022/08/23 04:14:48;;;;;;;8.93;6.70;;;13.20;99.90;;;;;;4972475;28;20126;-74
2022/08/23 04:17:14;;;;;;;7.65;6.68;;;13.30;99.90;;;;;;4972236;28;20093;-75
2022/08/23 04:19:41;;;;;;;8.38;6.05;;;13.50;99.90;;;;;;4972338;28;20038;-74
2022/08/23 04:22:12;;;;;;;8.13;6.35;;;13.60;99.90;;;;;;4989400;28;20019;-74
2022/08/23 04:24:38;;;;;;;8.02;7.22;;;13.40;99.90;;;;;;5000834;28;20050;-75
2022/08/23 04:27:04;;;;;;;9.00;7.20;;;13.30;99.90;;;;;;4991705;28;20358;-75
2022/08/23 04:29:30;;;;;;;9.70;7.35;;;13.30;99.90;;;;;;4991758;28;20444;-74
2022/08/23 04:31:55;;;;;;;8.80;6.93;;;13.20;99.90;;;;;;4991850;28;20034;-75
2022/08/23 04:34:21;;;;;;;7.22;6.45;;;13.20;99.90;;;;;;4991618;28;20052;-75
2022/08/23 04:36:48;;;;;;;8.25;7.10;;;13.40;99.90;;;;;;4992572;28;20030;-75
2022/08/23 04:39:14;;;;;;;9.15;7.13;;;13.50;99.90;;;;;;4995168;28;20022;-74
2022/08/23 04:44:24;;;;;;;8.50;6.80;;;13.20;99.90;;;;;;4994340;28;20034;-74
2022/08/23 04:46:50;;;;;;;9.75;7.82;;;13.10;99.90;;;;;;5005698;28;20029;-74
2022/08/23 04:49:16;;;;;;;8.70;7.70;;;13.40;99.90;;;;;;4975630;28;20033;-76
2022/08/23 04:51:42;;;;;;;8.23;7.40;;;12.90;99.90;;;;;;4982952;28;20045;-74
2022/08/23 04:54:08;;;;;;;8.95;7.05;;;13.20;99.90;;;;;;4995109;28;20023;-75
2022/08/23 04:56:34;;;;;;;12.25;7.93;;;13.40;99.90;;;;;;4993377;28;20041;-74
2022/08/23 04:59:00;;;;;;;9.23;7.40;;;13.40;99.90;;;;;;4995487;28;20069;-72
2022/08/23 05:01:26;;;;;;;9.50;7.18;;;13.40;99.90;;;;;;4986735;28;20244;-79
2022/08/23 05:03:52;;;;;;;8.43;6.57;;;13.70;99.90;;;;;;4975688;28;20480;-75
2022/08/23 05:06:18;;;;;;;7.65;6.82;;;13.70;99.90;;;;;;4975303;28;20058;-75
2022/08/23 05:08:43;;;;;;;7.97;7.07;;;13.70;99.90;;;;;;4975040;28;20106;-75
2022/08/23 05:11:10;;;;;;;9.40;6.78;;;14.00;99.90;;;;;;4975310;28;20031;-75
2022/08/23 05:13:37;;;;;;;9.90;6.95;;;13.90;99.90;;;;;;4975248;28;20037;-76
2022/08/23 05:16:03;;;;;;;10.48;6.90;;;13.90;99.90;;;;;;4975096;28;20030;-75
2022/08/23 05:18:28;;;;;;;8.50;7.18;;;13.80;99.90;;;;;;4974968;28;20085;-75
2022/08/23 05:20:54;;;;;;;8.50;6.35;;;13.80;99.90;;;;;;4975184;28;20480;-75
2022/08/23 05:23:20;;;;;;;8.90;6.13;;;13.80;99.90;;;;;;4973764;28;20035;-75
2022/08/23 05:25:49;;;;;;;8.38;6.88;;;13.80;99.90;;;;;;4989469;28;20027;-75
2022/08/23 05:28:27;;;;;;;10.52;6.70;;;14.00;99.90;;;;;;4994236;28;20031;-75
2022/08/23 05:31:15;;;;;;;8.05;6.43;;;13.90;99.90;;;;;;4993136;28;20027;-75
2022/08/23 05:33:42;;;;;;;7.32;6.10;;;14.10;99.90;;;;;;4994504;28;20148;-75
2022/08/23 05:36:09;;;;;;;7.75;6.07;;;14.30;99.90;;;;;;4994505;28;20064;-75
2022/08/23 05:38:35;;;;;;;10.52;7.05;;;14.50;99.90;;;;;;4993935;28;20551;-75
2022/08/23 05:41:01;;;;;;;7.63;6.93;;;14.70;99.90;;;;;;4987614;28;20031;-75
2022/08/23 05:43:28;;;;;;;8.45;6.80;;;14.50;99.90;;;;;;4980145;28;20041;-72
2022/08/23 05:46:09;;;;;;;8.70;6.45;;;14.60;99.90;;;;;;4996639;28;20037;-73
2022/08/23 05:48:36;;;;;;;8.63;6.25;;;14.70;99.90;;;;;;4986139;28;20038;-73
2022/08/23 05:51:14;;;;;;;7.85;5.57;;;14.90;99.90;;;;;;4982906;28;20014;-75
2022/08/23 05:53:41;;;;;;;9.20;5.68;;;15.00;99.90;;;;;;4991889;28;20022;-75
2022/08/23 05:56:17;;;;;;;7.85;5.18;;;15.20;99.90;;;;;;4983265;28;20031;-76
2022/08/23 05:58:44;;;;;;;8.50;5.63;;;15.50;99.90;;;;;;4987126;28;20035;-75
2022/08/23 06:01:10;;;;;;;7.65;5.20;;;15.60;99.90;;;;;;4985883;28;20057;-75
2022/08/23 06:03:36;;;;;;;6.10;5.50;;;15.70;99.90;;;;;;4981042;28;20484;-75
2022/08/23 06:06:02;;;;;;;9.60;6.10;;;15.70;99.90;;;;;;4981185;28;20469;-75
2022/08/23 06:08:28;;;;;;;8.35;5.38;;;15.90;99.90;;;;;;4987229;28;20033;-75
2022/08/23 06:11:02;;;;;;;9.70;6.15;;;16.10;99.90;;;;;;4974505;28;20403;-75
2022/08/23 06:13:27;;;;;;;6.57;5.35;;;16.40;99.90;;;;;;4974394;28;20034;-75
2022/08/23 06:15:54;;;;;;;7.10;5.47;;;16.50;99.90;;;;;;4985966;28;20026;-75
2022/08/23 06:18:19;;;;;;;7.82;5.53;;;16.40;99.90;;;;;;4981731;28;20527;-75
2022/08/23 06:20:45;;;;;;;8.05;5.63;;;16.30;99.90;;;;;;4980573;28;20031;-75
2022/08/23 06:23:11;;;;;;;7.85;5.20;;;16.40;99.90;;;;;;4986503;28;20038;-76
2022/08/23 06:25:38;;;;;;;7.65;5.20;;;16.30;99.90;;;;;;4985881;28;20030;-75
2022/08/23 06:28:03;;;;;;;7.05;5.43;;;16.50;99.90;;;;;;4980968;28;20469;-76
2022/08/23 06:30:29;;;;;;;7.50;4.97;;;16.40;99.90;;;;;;4979622;28;20033;-75
2022/08/23 06:32:54;;;;;;;8.43;5.50;;;16.30;99.90;;;;;;4980994;28;20595;-75
2022/08/23 06:35:20;;;;;;;6.00;5.22;;;16.40;99.90;;;;;;4980275;28;20027;-74
2022/08/23 06:37:46;;;;;;;9.13;5.78;;;16.50;99.90;;;;;;4993147;28;20065;-74
2022/08/23 06:40:12;;;;;;;8.90;5.38;;;16.60;99.90;;;;;;4993071;28;20085;-74
2022/08/23 06:42:37;;;;;;;5.65;5.00;;;16.60;99.90;;;;;;4993186;28;20037;-74
2022/08/23 06:45:05;;;;;;;7.32;5.13;;;16.70;99.90;;;;;;4992320;28;20034;-74
2022/08/23 06:47:31;;;;;;;8.38;4.72;;;;;;;;;;4973321;28;20158;-74
2022/08/23 06:49:57;;;;;;;6.63;5.28;;;16.80;99.90;;;;;;4973484;28;20058;-74
2022/08/23 06:52:23;;;;;;;7.82;5.18;;;17.10;99.90;;;;;;4979546;28;20397;-74
2022/08/23 06:54:48;;;;;;;5.35;4.85;;;17.30;99.90;;;;;;4973534;28;20098;-74
2022/08/23 06:57:14;;;;;;;7.13;4.88;;;17.30;99.90;;;;;;4973264;28;20019;-75
2022/08/23 06:59:39;;;;;;;6.30;3.70;;;17.40;99.90;;;;;;4992884;28;20096;-74
2022/08/23 07:02:08;;;;;;;6.13;3.85;;;17.60;99.90;;;;;;4995816;28;20682;-74
2022/08/23 07:04:37;;;;;;;7.90;3.42;;;17.80;99.90;;;;;;4985199;28;20022;-74
2022/08/23 07:07:04;;;;;;;5.93;3.50;;;17.90;99.90;;;;;;4986406;28;20022;-74
2022/08/23 07:09:30;;;;;;;4.85;3.17;;;18.10;99.90;;;;;;5001749;28;20018;-74
2022/08/23 07:11:57;;;;;;;4.68;3.30;;;18.20;99.90;;;;;;4971990;28;20046;-74
2022/08/23 07:14:23;;;;;;;5.65;2.90;;;18.40;99.90;;;;;;4973411;28;20034;-74
2022/08/23 07:16:58;;;;;;;4.13;3.40;;;18.20;99.90;;;;;;4972872;28;20023;-74
2022/08/23 07:19:27;;;;;;;5.10;3.25;;;18.60;99.90;;;;;;4972987;28;20370;-74
2022/08/23 07:21:53;;;;;;;3.58;2.90;;;18.70;99.90;;;;;;4978227;28;20027;-74
2022/08/23 07:24:19;;;;;;;5.15;2.60;;;18.80;99.90;;;;;;4996912;28;20032;-75
2022/08/23 07:26:47;;;;;;;3.10;2.78;;;18.70;99.90;;;;;;5000140;28;20045;-74
2022/08/23 07:29:13;;;;;;;5.13;3.17;;;18.80;99.90;;;;;;4990666;28;20026;-75
2022/08/23 07:31:44;;;;;;;3.83;2.20;;;19.00;99.90;;;;;;4980935;28;20034;-75
2022/08/23 07:34:10;;;;;;;4.68;2.80;;;19.00;99.90;;;;;;4992360;28;20030;-74
2022/08/23 07:36:37;;;;;;;5.20;2.72;;;19.20;99.90;;;;;;4990989;28;20030;-74
2022/08/23 07:39:05;;;;;;;3.08;2.40;;;19.30;99.90;;;;;;4992076;28;20022;-74
2022/08/23 07:41:31;;;;;;;4.20;2.35;;;19.30;99.90;;;;;;4987731;28;20080;-74
2022/08/23 07:44:01;;;;;;;2.28;2.08;;;19.50;99.90;;;;;;4992649;28;20506;-74
2022/08/23 07:46:28;;;;;;;2.60;1.98;;;19.70;99.90;;;;;;5006750;28;20084;-74
2022/08/23 07:48:57;;;;;;;3.95;2.17;;;19.70;99.90;;;;;;4976050;28;20109;-74
2022/08/23 07:51:23;;;;;;;2.53;1.50;;;19.90;99.90;;;;;;4991385;28;20096;-74
2022/08/23 07:53:48;;;;;;;3.05;1.92;;;19.90;99.90;;;;;;4993057;28;20480;-74
2022/08/23 07:56:16;;;;;;;3.22;2.35;;;20.00;99.90;;;;;;4979417;28;20085;-74
2022/08/23 07:58:42;;;;;;;2.25;2.05;;;20.10;99.90;;;;;;4971895;28;20042;-74
2022/08/23 08:01:15;;;;;;;3.08;2.00;;;20.10;99.90;;;;;;4983466;28;20030;-74
2022/08/23 08:03:42;;;;;;;2.25;1.95;;;20.20;99.90;;;;;;4972734;28;20041;-74
2022/08/23 08:06:17;;;;;;;3.85;1.75;;;20.40;99.90;;;;;;4972590;28;20023;-74
2022/08/23 08:08:44;;;;;;;2.00;1.80;;;20.60;99.90;;;;;;4972496;28;20129;-73
2022/08/23 08:11:11;;;;;;;2.53;1.90;;;20.50;99.90;;;;;;4972427;28;20036;-73
2022/08/23 08:13:38;;;;;;;3.95;1.95;;;20.50;99.90;;;;;;4976348;28;20038;-74
2022/08/23 08:16:04;;;;;;;2.50;1.88;;;20.50;99.90;;;;;;4978142;28;20023;-75
2022/08/23 08:18:30;;;;;;;3.83;2.00;;;20.40;99.90;;;;;;4994166;28;20030;-73
2022/08/23 08:20:55;;;;;;;3.40;1.80;;;20.60;99.90;;;;;;4995680;28;20105;-73
2022/08/23 08:23:21;;;;;;;5.57;2.20;;;20.70;99.90;;;;;;4995658;28;20022;-73
2022/08/23 08:25:46;;;;;;;2.78;2.20;;;20.90;99.90;;;;;;4995358;28;20423;-72
2022/08/23 08:28:12;;;;;;;2.90;1.80;;;21.00;99.90;;;;;;4995340;28;20080;-73
2022/08/23 08:30:38;;;;;;;3.95;1.60;;;20.90;99.90;;;;;;4995492;28;20102;-73
2022/08/23 08:33:04;;;;;;;1.75;1.58;;;;;;;;;;4995506;28;20026;-73
2022/08/23 08:35:30;;;;;;;2.92;1.83;;;21.00;99.90;;;;;;4995427;28;20054;-73
2022/08/23 08:37:55;;;;;;;3.85;1.88;;;21.20;99.90;;;;;;4995221;28;20443;-73
2022/08/23 08:40:30;;;;;;;4.03;1.42;;;21.30;99.90;;;;;;4995173;28;20026;-73
2022/08/23 08:43:21;;;;;;;2.28;1.60;;;21.30;99.90;;;;;;4994184;28;20018;-73
2022/08/23 08:46:21;;;;;;;4.85;1.92;;;21.40;99.90;;;;;;4999900;28;20022;-73
2022/08/23 08:48:56;;;;;;;3.97;2.00;;;21.30;99.90;;;;;;4968136;28;20042;-73
2022/08/23 08:52:00;;;;;;;5.05;1.80;;;21.50;99.90;;;;;;4979865;28;20033;-73
2022/08/23 08:54:29;;;;;;;2.83;1.63;;;21.50;99.90;;;;;;4982286;28;20388;-73
2022/08/23 08:56:59;;;;;;;3.35;1.20;;;21.30;99.90;;;;;;4983783;28;20106;-73
2022/08/23 08:59:47;;;;;;;4.63;1.25;;;21.60;99.90;;;;;;4983156;28;20108;-73
2022/08/23 09:02:17;;;;;;;1.92;1.30;;;21.70;99.90;;;;;;4993177;28;20037;-73
2022/08/23 09:04:44;;;;;;;3.70;1.10;;;21.70;99.90;;;;;;4992390;28;20031;-73
2022/08/23 09:07:32;;;;;;;3.42;1.38;;;22.00;99.90;;;;;;4994169;28;20412;-73
2022/08/23 09:10:15;;;;;;;1.58;1.08;;;21.80;99.90;;;;;;4993414;28;20030;-73
2022/08/23 09:13:02;;;;;;;2.75;1.27;;;21.90;99.90;;;;;;4994760;28;20041;-73
2022/08/23 09:15:55;;;;;;;3.72;1.00;;;22.20;99.90;;;;;;4994670;28;20033;-73
2022/08/23 09:18:23;;;;;;;2.03;1.33;;;22.40;99.90;;;;;;4994468;28;20425;-73
2022/08/23 09:20:52;;;;;;;4.45;1.38;;;22.40;99.90;;;;;;4994875;28;20060;-73
2022/08/23 09:23:41;;;;;;;3.03;1.02;;;22.40;99.90;;;;;;4994635;28;20064;-73
2022/08/23 09:26:18;;;;;;;1.70;1.10;;;22.60;99.90;;;;;;4994467;28;20029;-73
2022/08/23 09:28:44;;;;;;;1.40;1.20;;;22.60;99.90;;;;;;4994270;28;20050;-73
2022/08/23 09:31:10;;;;;;;4.10;1.23;;;22.60;99.90;;;;;;4994546;28;20480;-73
2022/08/23 09:33:38;;;;;;;2.13;1.30;;;22.60;99.90;;;;;;4994405;28;20034;-73
2022/08/23 09:36:22;;;;;;;1.70;1.15;;;22.80;99.90;;;;;;4994456;28;20706;-74
2022/08/23 09:38:53;;;;;;;1.33;1.23;;;22.90;99.90;;;;;;4993215;28;20032;-73
2022/08/23 09:41:26;;;;;;;1.15;1.05;;;22.90;99.90;;;;;;4993783;28;20488;-73
2022/08/23 09:43:52;;;;;;;2.03;1.20;;;23.10;99.90;;;;;;4992879;28;20396;-73
2022/08/23 09:46:31;;;;;;;2.38;0.80;;;23.30;99.90;;;;;;5003832;28;20440;-73
2022/08/23 09:48:59;;;;;;;1.23;0.90;;;23.10;99.90;;;;;;4976776;28;20018;-73
2022/08/23 09:51:35;;;;;;;2.90;1.10;;;23.20;99.90;;;;;;4979611;28;20104;-73
2022/08/23 09:54:10;;;;;;;1.63;1.33;;;23.40;99.90;;;;;;4974669;28;20106;-73
2022/08/23 09:56:40;;;;;;;2.80;1.00;;;23.30;99.90;;;;;;4973305;28;20030;-73
2022/08/23 09:59:24;;;;;;;4.43;1.13;;;23.40;99.90;;;;;;5016914;22;20556;-77
2022/08/23 10:01:52;;;;;;;3.05;1.08;;;23.40;99.90;;;;;;5029502;28;20028;-77
2022/08/23 10:04:28;;;;;;;4.10;1.25;;;23.40;99.90;;;;;;5037052;28;20029;-77
2022/08/23 10:06:53;;;;;;;;;;;23.50;99.90;;;;;;5032490;28;20108;-77
2022/08/23 10:09:34;;;;;;;2.42;1.10;;;23.50;99.90;;;;;;5035263;28;19959;-77
2022/08/23 10:12:01;;;;;;;1.33;0.90;;;23.60;99.90;;;;;;5030091;28;20026;-77
2022/08/23 10:14:28;;;;;;;2.55;1.05;;;23.80;99.90;;;;;;5028288;28;20029;-77
2022/08/23 10:17:20;;;;;;;1.35;1.05;;;24.00;99.90;;;;;;5033613;28;20064;-77
2022/08/23 10:19:48;;;;;;;2.55;1.08;;;23.80;99.90;;;;;;5030931;28;20110;-77
2022/08/23 10:22:21;;;;;;;4.25;1.40;;;23.70;99.90;;;;;;5034181;28;20069;-77
2022/08/23 10:25:11;;;;;;;1.65;0.90;;;24.00;99.90;;;;;;5024796;28;20443;-77
2022/08/23 10:31:06;;;;;;;0.98;0.90;;;24.30;99.90;;;;;;5032575;28;20068;-77
2022/08/23 10:33:59;;;;;;;1.17;0.90;;;24.40;99.70;;;;;;5022237;28;20014;-77
2022/08/23 10:36:40;;;;;;;1.95;1.02;;;24.50;99.90;;;;;;4993295;28;20037;-77
2022/08/23 10:39:14;;;;;;;2.38;1.02;;;24.70;99.90;;;;;;5025133;28;20082;-77
2022/08/23 10:42:31;;;;;;;1.70;0.82;;;24.90;99.90;;;;;;5032601;28;20102;-77
2022/08/23 10:45:08;;;;;;;3.70;1.13;;;25.00;99.30;;;;;;5010298;28;20022;-77
2022/08/23 10:47:36;;;;;;;3.28;1.00;;;24.90;99.40;;;;;;5019538;28;20091;-77
2022/08/23 10:50:13;;;;;;;2.60;0.90;;;24.70;99.10;;;;;;5030984;28;20461;-77
2022/08/23 10:53:03;;;;;;;1.98;0.93;;;25.10;98.90;;;;;;5032388;28;20028;-77
2022/08/23 10:55:53;;;;;;;1.02;0.90;;;25.40;99.10;;;;;;5032317;28;20031;-77
2022/08/23 10:58:23;;;;;;;2.78;0.90;;;25.50;98.80;;;;;;5032110;28;20506;-77
2022/08/23 11:00:51;;;;;;;1.25;0.85;;;25.50;98.80;;;;;;5032258;28;20037;-78
2022/08/23 11:03:31;;;;;;;3.08;1.10;;;25.60;98.00;;;;;;5019026;28;20080;-77
2022/08/23 11:06:34;;;;;;;1.77;0.70;;;25.40;98.30;;;;;;5032170;28;20450;-77
2022/08/23 11:09:05;;;;;;;1.15;0.90;;;25.80;97.90;;;;;;5031885;28;20490;-75
2022/08/23 11:11:45;;;;;;;2.55;0.93;;;25.90;97.50;;;;;;5032040;28;20044;-78
2022/08/23 11:14:27;;;;;;;1.88;0.93;;;25.90;97.90;;;;;;5032200;28;20177;-78
2022/08/23 11:17:00;;;;;;;3.22;1.02;;;26.10;97.40;;;;;;5018435;28;20029;-77
2022/08/23 11:19:44;;;;;;;1.73;0.82;;;26.20;97.60;;;;;;5031793;28;20033;-77
2022/08/23 11:22:26;;;;;;;1.00;0.85;;;26.30;97.00;;;;;;5031944;28;20028;-77
2022/08/23 11:25:25;;;;;;;0.90;0.80;;;26.40;97.20;;;;;;4997842;28;20018;-77
2022/08/23 11:28:26;;;;;;;1.23;0.90;;;26.30;96.80;;;;;;5028455;28;20372;-78
2022/08/23 11:31:07;;;;;;;1.55;1.10;;;26.00;96.50;;;;;;5019768;28;20018;-77
2022/08/23 11:33:46;;;;;;;2.38;1.20;;;26.00;97.40;;;;;;5032686;28;20071;-76
2022/08/23 11:36:17;;;;;;;1.73;1.40;;;26.10;96.40;;;;;;5031829;28;20371;-77
2022/08/23 11:38:42;;;;;;;1.45;1.25;;;26.20;96.60;;;;;;5026792;28;20025;-77
2022/08/23 11:41:17;;;;;;;1.80;1.30;;;26.70;97.20;;;;;;5025388;28;20505;-77
2022/08/23 11:43:48;;;;;;;1.83;1.30;;;26.80;96.50;;;;;;5016049;28;20080;-77
2022/08/23 11:46:31;;;;;;;1.90;1.30;;;26.60;96.20;;;;;;5014741;28;20029;-77
2022/08/23 11:49:26;;;;;;;2.00;1.40;;;26.90;96.10;;;;;;5028764;28;20031;-77
2022/08/23 11:52:04;;;;;;;2.47;1.27;;;26.70;96.80;;;;;;5026971;28;20033;-77
2022/08/23 11:54:30;;;;;;;2.13;1.65;;;26.80;96.00;;;;;;5035834;28;20031;-77
2022/08/23 11:57:27;;;;;;;2.92;1.50;;;26.70;95.60;;;;;;5036628;28;20104;-78
2022/08/23 12:00:15;;;;;;;3.22;1.20;;;26.90;95.80;;;;;;5000740;28;20045;-77
2022/08/23 12:02:46;;;;;;;1.85;1.30;;;27.00;95.30;;;;;;5028935;28;20029;-78
2022/08/23 12:05:20;;;;;;;2.22;1.50;;;27.20;95.30;;;;;;5036782;28;20044;-77
2022/08/23 12:08:00;;;;;;;2.22;1.50;;;27.30;95.90;;;;;;5036397;28;20105;-77
2022/08/23 12:10:40;;;;;;;2.30;1.60;;;27.60;95.90;;;;;;5005568;28;20033;-77
2022/08/23 12:13:18;;;;;;;3.00;1.73;;;28.20;95.10;;;;;;5032206;28;20072;-77
2022/08/23 12:16:25;;;;;;;1.50;1.40;;;28.30;94.30;;;;;;5038505;28;20044;-76
2022/08/23 12:18:53;;;;;;;1.73;1.30;;;28.00;93.80;;;;;;5037418;28;20021;-76
2022/08/23 12:21:21;;;;;;;4.13;1.70;;;28.00;94.20;;;;;;5032316;28;20089;-76
2022/08/23 12:24:00;;;;;;;3.40;1.63;;;27.90;93.30;;;;;;5027847;28;20079;-77
2022/08/23 12:26:38;;;;;;;2.75;1.40;;;27.80;93.80;;;;;;5012246;28;20382;-77
2022/08/23 12:29:38;;;;;;;1.90;1.50;;;28.20;94.30;;;;;;5034738;28;20470;-76
2022/08/23 12:32:15;;;;;;;2.83;1.55;;;27.70;94.30;;;;;;5023381;28;20038;-77
2022/08/23 12:34:58;;;;;;;3.90;1.70;;;28.00;94.40;;;;;;5035599;28;20364;-76
2022/08/23 12:37:29;;;;;;;3.67;1.60;;;27.80;94.00;;;;;;5026378;28;20083;-76
2022/08/23 12:39:58;;;;;;;4.25;2.05;;;28.40;93.60;;;;;;5037163;28;20028;-77
2022/08/23 12:42:32;;;;;;;2.00;1.80;;;29.20;93.70;;;;;;5016619;28;20057;-77
2022/08/23 12:45:10;;;;;;;2.25;1.63;;;29.40;93.00;;;;;;5022671;28;20033;-77
2022/08/23 12:47:35;;;;;;;3.20;1.90;;;29.50;93.10;;;;;;5001648;28;20040;-77
2022/08/23 12:50:27;;;;;;;2.88;1.60;;;28.90;93.00;;;;;;5028881;28;20467;-76
2022/08/23 12:53:04;;;;;;;3.83;1.50;;;29.70;92.30;;;;;;5019383;28;20063;-77
2022/08/23 12:55:37;;;;;;;2.75;1.60;;;30.20;92.00;;;;;;5034704;28;20025;-77
2022/08/23 12:58:05;;;;;;;4.20;1.90;;;29.60;92.00;;;;;;5033932;28;20113;-77
2022/08/23 13:00:35;;;;;;;1.70;1.60;;;29.40;92.00;;;;;;5034477;28;20037;-76
2022/08/23 13:03:13;;;;;;;3.13;1.80;;;30.10;91.50;;;;;;5033479;28;20391;-77
2022/08/23 13:05:39;;;;;;;1.98;1.70;;;30.30;91.10;;;;;;5035219;28;20025;-77
2022/08/23 13:08:10;;;;;;;1.67;1.58;;;30.90;90.90;;;;;;5032919;28;20095;-77
2022/08/23 13:10:39;;;;;;;2.83;1.70;;;31.60;90.20;;;;;;5025178;28;20574;-77
2022/08/23 13:13:07;;;;;;;2.97;1.70;;;32.50;89.50;;;;;;5019990;28;20022;-77
2022/08/23 13:16:00;;;;;;;2.78;1.77;;;32.00;87.70;;;;;;5026178;28;20025;-77
2022/08/23 13:18:45;;;;;;;2.45;1.92;;;32.10;88.70;;;;;;5000137;28;20038;-77